Time;durP1;ratioP1;P1;durP2;ratioP2;P2;SDS_P1;SDS_P2;PMS_P1;PMS_P2;Temp;Humidity;BMP_temperature;BMP_pressure;BME280_temperature;BME280_humidity;BME280_pressure;Samples;Min_cycle;Max_cycle;Signal;HPM_P1;HPM_P2
2023/08/21 00:00:50;;;;;;;9.60;5.55;;;;;;;;;;5033322;28;20036;-86
2023/08/21 00:03:15;;;;;;;9.55;5.13;;;;;;;;;;5044296;28;20033;-87
2023/08/21 00:05:40;;;;;;;10.00;6.13;;;;;;;;;;5052572;28;20024;-84
2023/08/21 00:08:06;;;;;;;6.35;5.35;;;;;;;;;;5049111;28;20387;-85
2023/08/21 00:10:32;;;;;;;6.03;5.10;;;;;;;;;;5051724;28;21210;-84
2023/08/21 00:12:58;;;;;;;7.18;5.28;;;;;;;;;;5045796;28;20572;-81
2023/08/21 00:15:23;;;;;;;9.48;5.88;;;;;;;;;;5046304;28;20037;-83
2023/08/21 00:17:49;;;;;;;10.55;5.35;;;;;;;;;;5029913;28;20037;-85
2023/08/21 00:20:14;;;;;;;6.60;4.25;;;;;;;;;;5048450;28;20029;-83
2023/08/21 00:22:39;;;;;;;6.97;4.82;;;;;;;;;;5048075;28;20421;-84
2023/08/21 00:25:05;;;;;;;10.68;5.25;;;;;;;;;;5047237;28;20036;-83
2023/08/21 00:27:30;;;;;;;11.85;5.10;;;;;;;;;;5050488;28;20047;-82
2023/08/21 00:29:55;;;;;;;5.93;4.93;;;;;;;;;;5051209;28;20049;-85
2023/08/21 00:32:21;;;;;;;7.63;4.68;;;;;;;;;;5029990;28;20065;-84
2023/08/21 00:34:46;;;;;;;9.23;4.88;;;;;;;;;;5049842;28;20031;-85
2023/08/21 00:37:11;;;;;;;10.55;5.00;;;;;;;;;;5059651;28;20072;-84
2023/08/21 00:39:36;;;;;;;11.00;5.22;;;;;;;;;;5046292;28;20048;-84
2023/08/21 00:42:02;;;;;;;9.65;4.95;;;;;;;;;;5053266;28;20517;-84
2023/08/21 00:44:27;;;;;;;9.20;5.20;;;;;;;;;;5053955;28;20565;-84
2023/08/21 00:46:53;;;;;;;6.28;4.53;;;;;;;;;;5052501;28;20041;-83
2023/08/21 00:49:18;;;;;;;11.13;5.05;;;;;;;;;;5051011;28;20042;-85
2023/08/21 00:51:44;;;;;;;8.25;4.90;;;;;;;;;;5051657;28;20033;-85
2023/08/21 00:54:10;;;;;;;7.53;5.05;;;;;;;;;;5051862;28;20032;-84
2023/08/21 00:56:36;;;;;;;13.73;5.88;;;;;;;;;;5037223;28;20029;-84
2023/08/21 00:59:01;;;;;;;7.80;5.65;;;;;;;;;;5061822;28;20457;-85
2023/08/21 01:01:28;;;;;;;11.90;5.70;;;;;;;;;;5053311;28;20445;-83
2023/08/21 01:03:53;;;;;;;7.43;4.95;;;;;;;;;;5066492;28;20029;-84
2023/08/21 01:06:20;;;;;;;9.68;5.00;;;;;;;;;;5052178;28;20017;-84
2023/08/21 01:09:15;;;;;;;11.32;6.15;;;;;;;;;;5032374;28;20036;-83
2023/08/21 01:11:54;;;;;;;16.27;5.90;;;;;;;;;;5068055;28;20458;-82
2023/08/21 01:14:29;;;;;;;8.82;5.22;;;;;;;;;;5048969;28;20028;-82
2023/08/21 01:16:58;;;;;;;11.07;4.72;;;;;;;;;;5050798;28;20507;-84
2023/08/21 01:19:40;;;;;;;8.02;4.53;;;;;;;;;;5048947;28;20078;-83
2023/08/21 01:22:06;;;;;;;6.05;4.82;;;;;;;;;;5044051;28;20037;-83
2023/08/21 01:24:31;;;;;;;5.60;4.93;;;;;;;;;;5049874;28;20102;-83
2023/08/21 01:26:57;;;;;;;5.97;5.00;;;;;;;;;;5050794;28;20036;-82
2023/08/21 01:29:22;;;;;;;10.95;4.95;;;;;;;;;;5047336;28;20410;-85
2023/08/21 01:32:07;;;;;;;8.10;5.20;;;;;;;;;;5048919;28;20379;-84
2023/08/21 01:34:33;;;;;;;6.75;4.88;;;;;;;;;;5049166;28;20079;-83
2023/08/21 01:37:00;;;;;;;10.73;5.25;;;;;;;;;;5048226;28;20503;-85
2023/08/21 01:39:25;;;;;;;8.27;5.60;;;;;;;;;;5051914;28;20037;-83
2023/08/21 01:41:50;;;;;;;10.77;5.38;;;;;;;;;;5049985;28;20048;-84
2023/08/21 01:44:16;;;;;;;9.20;5.32;;;;;;;;;;5053618;28;20033;-81
2023/08/21 01:46:41;;;;;;;9.77;5.68;;;;;;;;;;5051378;28;20100;-79
2023/08/21 01:49:06;;;;;;;8.50;5.80;;;;;;;;;;5051450;28;20380;-80
2023/08/21 01:51:31;;;;;;;7.05;5.20;;;;;;;;;;5050999;28;20036;-81
2023/08/21 01:53:57;;;;;;;12.02;5.60;;;;;;;;;;5046154;28;20109;-79
2023/08/21 01:56:23;;;;;;;10.40;5.55;;;;;;;;;;5050082;28;20049;-80
2023/08/21 01:58:48;;;;;;;10.00;5.60;;;;;;;;;;5052893;28;20341;-79
2023/08/21 02:01:14;;;;;;;8.05;5.43;;;;;;;;;;5030853;28;20051;-82
2023/08/21 02:03:40;;;;;;;7.20;5.32;;;;;;;;;;5049389;28;20063;-81
2023/08/21 02:06:06;;;;;;;11.38;5.80;;;;;;;;;;5045753;28;20084;-80
2023/08/21 02:08:34;;;;;;;10.02;5.38;;;;;;;;;;5053066;28;20059;-79
2023/08/21 02:11:00;;;;;;;8.60;5.95;;;;;;;;;;5028290;28;20094;-81
2023/08/21 02:13:25;;;;;;;8.88;5.72;;;;;;;;;;5047803;28;20029;-80
2023/08/21 02:15:51;;;;;;;7.68;6.30;;;;;;;;;;5050632;28;20037;-79
2023/08/21 02:18:16;;;;;;;10.77;6.32;;;;;;;;;;5046954;28;20021;-79
2023/08/21 02:20:42;;;;;;;8.20;6.30;;;;;;;;;;5049106;28;20148;-79
2023/08/21 02:23:07;;;;;;;8.93;6.40;;;;;;;;;;5052436;28;20037;-79
2023/08/21 02:25:33;;;;;;;8.70;6.47;;;;;;;;;;5052327;28;20040;-80
2023/08/21 02:27:58;;;;;;;9.15;6.30;;;;;;;;;;5051723;28;20043;-82
2023/08/21 02:30:27;;;;;;;9.15;6.65;;;;;;;;;;5050785;28;20499;-80
2023/08/21 02:32:52;;;;;;;8.02;6.13;;;;;;;;;;5054971;28;20021;-81
2023/08/21 02:35:18;;;;;;;13.02;7.07;;;;;;;;;;5050734;28;20444;-81
2023/08/21 02:37:43;;;;;;;11.65;7.05;;;;;;;;;;5053315;28;20072;-80
2023/08/21 02:40:09;;;;;;;7.95;6.93;;;;;;;;;;5041127;28;20037;-79
2023/08/21 02:42:35;;;;;;;8.85;7.03;;;;;;;;;;5023276;28;20033;-81
2023/08/21 02:45:03;;;;;;;7.97;7.15;;;;;;;;;;5040110;28;20055;-80
2023/08/21 02:47:29;;;;;;;9.95;7.07;;;;;;;;;;5035987;28;20041;-78
2023/08/21 02:49:54;;;;;;;10.23;7.13;;;;;;;;;;5044298;28;20044;-78
2023/08/21 02:52:19;;;;;;;14.95;7.13;;;;;;;;;;5051445;28;20040;-80
2023/08/21 02:54:44;;;;;;;9.38;6.63;;;;;;;;;;5053683;28;20033;-81
2023/08/21 02:57:10;;;;;;;10.15;6.68;;;;;;;;;;5048225;28;20045;-79
2023/08/21 02:59:35;;;;;;;14.82;6.78;;;;;;;;;;5049614;28;20018;-80
2023/08/21 03:02:00;;;;;;;8.30;6.82;;;;;;;;;;5030574;28;20525;-80
2023/08/21 03:04:26;;;;;;;11.20;7.20;;;;;;;;;;5051377;28;20594;-81
2023/08/21 03:06:51;;;;;;;12.13;7.15;;;;;;;;;;5030510;28;20029;-80
2023/08/21 03:09:16;;;;;;;12.15;6.90;;;;;;;;;;5027194;28;20025;-81
2023/08/21 03:11:42;;;;;;;14.27;6.50;;;;;;;;;;5053518;28;20040;-80
2023/08/21 03:14:07;;;;;;;10.10;6.75;;;;;;;;;;5051765;28;20040;-80
2023/08/21 03:16:33;;;;;;;9.60;6.22;;;;;;;;;;5051352;28;20033;-79
2023/08/21 03:19:00;;;;;;;9.10;6.78;;;;;;;;;;5046514;28;20395;-80
2023/08/21 03:21:25;;;;;;;9.30;6.97;;;;;;;;;;5050788;28;20041;-81
2023/08/21 03:23:54;;;;;;;10.93;6.38;;;;;;;;;;5043974;28;20027;-80
2023/08/21 03:26:19;;;;;;;8.45;6.28;;;;;;;;;;5029518;28;20067;-79
2023/08/21 03:28:45;;;;;;;11.43;6.18;;;;;;;;;;5052779;28;20049;-81
2023/08/21 03:31:10;;;;;;;8.77;6.18;;;;;;;;;;5051257;28;20651;-80
2023/08/21 03:33:35;;;;;;;7.68;6.82;;;;;;;;;;5030525;28;20033;-80
2023/08/21 03:36:01;;;;;;;9.05;6.22;;;;;;;;;;5051385;28;20051;-82
2023/08/21 03:38:26;;;;;;;11.52;5.70;;;;;;;;;;5047040;28;20034;-83
2023/08/21 03:40:51;;;;;;;12.02;5.80;;;;;;;;;;5050309;28;20028;-84
2023/08/21 03:43:17;;;;;;;11.38;5.20;;;;;;;;;;5050170;28;20033;-86
2023/08/21 03:45:42;;;;;;;7.38;5.47;;;;;;;;;;5049473;28;20115;-85
2023/08/21 03:48:07;;;;;;;7.72;6.03;;;;;;;;;;5046213;28;20040;-85
2023/08/21 03:50:33;;;;;;;10.80;5.70;;;;;;;;;;5049667;28;20483;-84
2023/08/21 03:52:58;;;;;;;8.25;5.93;;;;;;;;;;5037602;28;20087;-81
2023/08/21 03:55:23;;;;;;;11.15;6.65;;;;;;;;;;5049652;28;20029;-80
2023/08/21 03:57:48;;;;;;;8.82;5.95;;;;;;;;;;5044370;28;20056;-85
2023/08/21 04:00:14;;;;;;;8.55;6.68;;;;;;;;;;5053167;28;20040;-82
2023/08/21 04:02:40;;;;;;;9.00;6.13;;;;;;;;;;5051181;28;20063;-86
2023/08/21 04:05:06;;;;;;;8.73;6.93;;;;;;;;;;5052755;28;20033;-85
2023/08/21 04:07:31;;;;;;;8.82;5.90;;;;;;;;;;5051667;28;20110;-82
2023/08/21 04:09:56;;;;;;;9.07;6.40;;;;;;;;;;5043436;28;20041;-85
2023/08/21 04:12:22;;;;;;;14.52;7.57;;;;;;;;;;5038940;28;20056;-82
2023/08/21 04:14:47;;;;;;;13.07;7.20;;;;;;;;;;5039793;28;20014;-84
2023/08/21 04:17:12;;;;;;;13.50;6.60;;;;;;;;;;5037044;28;20041;-84
2023/08/21 04:19:40;;;;;;;11.00;6.68;;;;;;;;;;5025140;28;20111;-84
2023/08/21 04:22:06;;;;;;;10.95;6.97;;;;;;;;;;5030588;28;20040;-82
2023/08/21 04:24:31;;;;;;;13.07;6.78;;;;;;;;;;5053293;28;20029;-85
2023/08/21 04:26:56;;;;;;;11.75;7.40;;;;;;;;;;5049304;28;20124;-85
2023/08/21 04:29:22;;;;;;;9.95;7.53;;;;;;;;;;5052530;28;20037;-83
2023/08/21 04:31:47;;;;;;;13.23;7.50;;;;;;;;;;5047944;28;20534;-84
2023/08/21 04:34:13;;;;;;;7.32;6.38;;;;;;;;;;5046834;28;20030;-83
2023/08/21 04:36:38;;;;;;;10.60;6.18;;;;;;;;;;5045400;28;20037;-84
2023/08/21 04:39:04;;;;;;;12.35;6.65;;;;;;;;;;5046401;28;20044;-82
2023/08/21 04:41:29;;;;;;;9.82;6.32;;;;;;;;;;5037436;28;20029;-80
2023/08/21 04:43:54;;;;;;;12.23;7.25;;;;;;;;;;5044084;28;20033;-80
2023/08/21 04:46:19;;;;;;;9.15;6.85;;;;;;;;;;5025328;28;20029;-78
2023/08/21 04:48:45;;;;;;;17.63;6.95;;;;;;;;;;5024206;28;20511;-84
2023/08/21 04:51:10;;;;;;;10.00;7.10;;;;;;;;;;5024785;28;20029;-83
2023/08/21 04:53:35;;;;;;;13.02;7.05;;;;;;;;;;5042162;28;20048;-83
2023/08/21 04:56:01;;;;;;;8.77;6.13;;;;;;;;;;5042567;28;20049;-83
2023/08/21 04:58:26;;;;;;;9.05;5.97;;;;;;;;;;5042270;28;20060;-83
2023/08/21 05:00:51;;;;;;;6.28;5.57;;;;;;;;;;5050061;28;20037;-84
2023/08/21 05:03:17;;;;;;;7.82;5.63;;;;;;;;;;5054471;28;20028;-83
2023/08/21 05:05:51;;;;;;;9.02;5.85;;;;;;;;;;5058651;28;20021;-82
2023/08/21 05:08:16;;;;;;;;;;;;;;;;;;5055609;28;20069;-81
2023/08/21 05:10:41;;;;;;;10.70;4.88;;;;;;;;;;5050601;28;19989;-81
2023/08/21 05:13:07;;;;;;;11.30;5.18;;;;;;;;;;5034564;28;20049;-82
2023/08/21 05:15:32;;;;;;;7.55;5.70;;;;;;;;;;5055156;28;20044;-82
2023/08/21 05:17:58;;;;;;;8.27;5.13;;;;;;;;;;5057457;28;20044;-83
2023/08/21 05:20:25;;;;;;;8.43;5.53;;;;;;;;;;5051346;28;20057;-82
2023/08/21 05:22:50;;;;;;;6.72;5.20;;;;;;;;;;5050583;28;20042;-82
2023/08/21 05:25:16;;;;;;;13.38;5.40;;;;;;;;;;5038019;28;20039;-82
2023/08/21 05:27:41;;;;;;;7.70;5.20;;;;;;;;;;5062378;28;20041;-82
2023/08/21 05:30:07;;;;;;;8.70;4.95;;;;;;;;;;5041461;28;20025;-83
2023/08/21 05:32:32;;;;;;;10.00;5.20;;;;;;;;;;5044354;28;20024;-82
2023/08/21 05:34:58;;;;;;;6.00;4.97;;;;;;;;;;5060768;28;20029;-82
2023/08/21 05:37:23;;;;;;;9.88;5.13;;;;;;;;;;5055741;28;20055;-79
2023/08/21 05:39:48;;;;;;;10.52;5.57;;;;;;;;;;5045409;28;20033;-84
2023/08/21 05:42:14;;;;;;;5.03;4.53;;;;;;;;;;5056166;28;20028;-81
2023/08/21 05:44:39;;;;;;;8.73;4.70;;;;;;;;;;5039682;28;20078;-83
2023/08/21 05:47:04;;;;;;;9.20;5.07;;;;;;;;;;5054268;28;20036;-82
2023/08/21 05:49:30;;;;;;;5.32;4.72;;;;;;;;;;5052583;28;20030;-83
2023/08/21 05:51:58;;;;;;;6.70;4.57;;;;;;;;;;5060537;28;20035;-83
2023/08/21 05:54:25;;;;;;;6.82;4.60;;;;;;;;;;5054503;28;20450;-83
2023/08/21 05:56:50;;;;;;;6.55;4.45;;;;;;;;;;5061170;28;20017;-83
2023/08/21 05:59:27;;;;;;;5.88;3.97;;;;;;;;;;5058993;28;20033;-83
2023/08/21 06:01:53;;;;;;;8.82;5.00;;;;;;;;;;5053444;28;20052;-82
2023/08/21 06:04:18;;;;;;;8.20;4.50;;;;;;;;;;5058121;28;20103;-83
2023/08/21 06:06:43;;;;;;;6.88;4.60;;;;;;;;;;5038682;28;20041;-80
2023/08/21 06:09:08;;;;;;;10.65;4.25;;;;;;;;;;5058829;28;20108;-82
2023/08/21 06:11:34;;;;;;;9.70;4.18;;;;;;;;;;5059173;28;20070;-83
2023/08/21 06:13:59;;;;;;;4.85;4.30;;;;;;;;;;5060320;28;20033;-82
2023/08/21 06:16:24;;;;;;;5.20;4.32;;;;;;;;;;5055612;28;20052;-83
2023/08/21 06:18:49;;;;;;;12.60;4.80;;;;;;;;;;5054945;28;20029;-82
2023/08/21 06:21:15;;;;;;;5.93;4.50;;;;;;;;;;5036255;28;20263;-81
2023/08/21 06:23:40;;;;;;;7.15;3.97;;;;;;;;;;5061177;28;20021;-82
2023/08/21 06:26:06;;;;;;;5.30;4.30;;;;;;;;;;5055281;28;20029;-83
2023/08/21 06:28:31;;;;;;;7.47;4.18;;;;;;;;;;5054612;28;20056;-83
2023/08/21 06:31:03;;;;;;;7.07;4.55;;;;;;;;;;5054236;28;20261;-83
2023/08/21 06:33:28;;;;;;;15.70;4.50;;;;;;;;;;5059873;28;20029;-82
2023/08/21 06:35:53;;;;;;;10.10;4.45;;;;;;;;;;5059270;28;20067;-83
2023/08/21 06:38:19;;;;;;;7.10;3.95;;;;;;;;;;5039335;28;20049;-82
2023/08/21 06:40:46;;;;;;;5.43;3.95;;;;;;;;;;5055688;28;20045;-81
2023/08/21 06:43:11;;;;;;;7.25;4.32;;;;;;;;;;5060963;28;20033;-82
2023/08/21 06:45:36;;;;;;;5.70;3.88;;;;;;;;;;5037447;28;20561;-82
2023/08/21 06:48:02;;;;;;;6.32;3.83;;;;;;;;;;5053609;28;20039;-82
2023/08/21 06:50:27;;;;;;;7.85;4.40;;;;;;;;;;5035260;28;20063;-80
2023/08/21 06:52:53;;;;;;;9.23;4.25;;;;;;;;;;5037065;28;20053;-83
2023/08/21 06:55:18;;;;;;;9.63;4.07;;;;;;;;;;5055663;28;20038;-81
2023/08/21 06:57:43;;;;;;;5.50;3.83;;;;;;;;;;5032985;28;20045;-83
2023/08/21 07:00:09;;;;;;;8.38;3.85;;;;;;;;;;5038914;28;20945;-81
2023/08/21 07:02:35;;;;;;;6.05;3.40;;;;;;;;;;5050173;28;20067;-82
2023/08/21 07:05:00;;;;;;;7.97;4.10;;;;;;;;;;5037065;28;20094;-83
2023/08/21 07:07:26;;;;;;;8.57;4.20;;;;;;;;;;5015761;28;20168;-83
2023/08/21 07:09:51;;;;;;;7.60;4.03;;;;;;;;;;5040645;28;20026;-84
2023/08/21 07:12:16;;;;;;;12.68;3.95;;;;;;;;;;5045587;28;20017;-83
2023/08/21 07:14:42;;;;;;;6.30;3.92;;;;;;;;;;5047629;28;20081;-81
2023/08/21 07:17:07;;;;;;;7.25;4.00;;;;;;;;;;5047310;28;20045;-83
2023/08/21 07:19:32;;;;;;;7.57;3.80;;;;;;;;;;5045545;28;20049;-83
2023/08/21 07:21:57;;;;;;;5.07;4.20;;;;;;;;;;5040591;28;20057;-82
2023/08/21 07:24:23;;;;;;;6.35;4.03;;;;;;;;;;5045417;28;20033;-83
2023/08/21 07:26:48;;;;;;;5.68;4.38;;;;;;;;;;5021846;28;20486;-83
2023/08/21 07:29:13;;;;;;;8.70;4.10;;;;;;;;;;5028792;28;20044;-83
2023/08/21 07:31:39;;;;;;;8.70;4.47;;;;;;;;;;5042222;28;20037;-84
2023/08/21 07:34:04;;;;;;;6.07;4.32;;;;;;;;;;5054617;28;20064;-82
2023/08/21 07:36:31;;;;;;;7.43;3.72;;;;;;;;;;5052276;28;20046;-83
2023/08/21 07:38:56;;;;;;;6.28;4.57;;;;;;;;;;5051871;28;20017;-83
2023/08/21 07:41:22;;;;;;;7.65;4.55;;;;;;;;;;5036533;28;20049;-82
2023/08/21 07:43:47;;;;;;;5.45;4.18;;;;;;;;;;5037434;28;20096;-82
2023/08/21 07:46:18;;;;;;;6.18;4.20;;;;;;;;;;5034949;28;20032;-82
2023/08/21 07:48:44;;;;;;;6.22;4.22;;;;;;;;;;5034916;28;20033;-81
2023/08/21 07:51:09;;;;;;;11.63;4.70;;;;;;;;;;5038063;28;20029;-82
2023/08/21 07:53:35;;;;;;;7.63;4.60;;;;;;;;;;5054639;28;20037;-82
2023/08/21 07:56:01;;;;;;;6.47;4.38;;;;;;;;;;5054060;28;20410;-82
2023/08/21 07:58:27;;;;;;;7.32;4.70;;;;;;;;;;5054958;28;20041;-80
2023/08/21 08:00:52;;;;;;;12.57;4.75;;;;;;;;;;5044497;28;20033;-84
2023/08/21 08:03:17;;;;;;;4.47;4.07;;;;;;;;;;5045297;28;20131;-81
2023/08/21 08:05:43;;;;;;;8.30;4.45;;;;;;;;;;5047382;28;20022;-81
2023/08/21 08:08:11;;;;;;;6.28;4.50;;;;;;;;;;5048680;28;20136;-82
2023/08/21 08:10:40;;;;;;;8.57;4.80;;;;;;;;;;5043498;28;20095;-82
2023/08/21 08:13:07;;;;;;;5.78;4.10;;;;;;;;;;5035942;28;20033;-85
2023/08/21 08:15:34;;;;;;;6.93;4.47;;;;;;;;;;5033991;28;20129;-83
2023/08/21 08:18:00;;;;;;;7.80;4.93;;;;;;;;;;5019183;28;20072;-82
2023/08/21 08:20:26;;;;;;;4.55;3.90;;;;;;;;;;5013887;28;20037;-83
2023/08/21 08:22:51;;;;;;;9.05;4.50;;;;;;;;;;5018076;28;20034;-83
2023/08/21 08:25:16;;;;;;;6.10;4.40;;;;;;;;;;5034909;28;20030;-83
2023/08/21 08:27:42;;;;;;;8.73;4.70;;;;;;;;;;5037170;28;20422;-81
2023/08/21 08:30:08;;;;;;;8.52;4.15;;;;;;;;;;5020130;28;20155;-83
2023/08/21 08:32:34;;;;;;;10.90;4.60;;;;;;;;;;5037612;28;20085;-85
2023/08/21 08:34:59;;;;;;;8.05;4.40;;;;;;;;;;5044975;28;20465;-83
2023/08/21 08:37:25;;;;;;;4.35;3.90;;;;;;;;;;5046291;28;20619;-83
2023/08/21 08:39:50;;;;;;;7.85;4.55;;;;;;;;;;5031531;28;20059;-83
2023/08/21 08:42:16;;;;;;;8.20;5.00;;;;;;;;;;5048369;28;20083;-82
2023/08/21 08:44:43;;;;;;;11.13;4.38;;;;;;;;;;5042697;28;20016;-82
2023/08/21 08:47:10;;;;;;;5.07;4.47;;;;;;;;;;5039762;28;20080;-82
2023/08/21 08:49:39;;;;;;;6.03;4.07;;;;;;;;;;5031621;28;20072;-82
2023/08/21 08:52:04;;;;;;;10.30;4.43;;;;;;;;;;5043559;28;20045;-81
2023/08/21 08:54:31;;;;;;;8.00;4.40;;;;;;;;;;5041243;28;20041;-84
2023/08/21 08:56:56;;;;;;;7.57;4.90;;;;;;;;;;5043861;28;20037;-83
2023/08/21 08:59:22;;;;;;;5.72;4.40;;;;;;;;;;5045292;28;20911;-82
2023/08/21 09:01:47;;;;;;;5.57;4.15;;;;;;;;;;5027073;28;20045;-83
2023/08/21 09:04:13;;;;;;;6.90;4.57;;;;;;;;;;5045843;28;20496;-81
2023/08/21 09:06:38;;;;;;;14.95;4.57;;;;;;;;;;5036815;28;20061;-82
2023/08/21 09:09:04;;;;;;;7.95;4.80;;;;;;;;;;5040943;28;20025;-84
2023/08/21 09:11:30;;;;;;;9.75;4.30;;;;;;;;;;5039508;28;20049;-83
2023/08/21 09:13:55;;;;;;;16.42;4.80;;;;;;;;;;5047193;28;20540;-84
2023/08/21 09:16:22;;;;;;;11.05;5.00;;;;;;;;;;5048279;28;20045;-84
2023/08/21 09:18:57;;;;;;;12.27;5.03;;;;;;;;;;5048481;28;20646;-84
2023/08/21 09:21:27;;;;;;;9.75;4.70;;;;;;;;;;5049172;28;20029;-83
2023/08/21 09:24:02;;;;;;;12.00;4.50;;;;;;;;;;5038160;28;20375;-84
2023/08/21 09:26:31;;;;;;;7.97;4.88;;;;;;;;;;5044707;28;20036;-84
2023/08/21 09:28:58;;;;;;;10.15;4.82;;;;;;;;;;5045568;28;20032;-85
2023/08/21 09:31:33;;;;;;;5.55;4.72;;;;;;;;;;5047160;28;20039;-84
2023/08/21 09:34:00;;;;;;;8.43;4.88;;;;;;;;;;5038630;28;20146;-87
2023/08/21 09:36:26;;;;;;;6.63;4.70;;;;;;;;;;5019071;28;20137;-82
2023/08/21 09:38:52;;;;;;;8.40;4.90;;;;;;;;;;5034102;28;20124;-83
2023/08/21 09:41:22;;;;;;;8.55;4.97;;;;;;;;;;5037101;28;20053;-84
2023/08/21 09:43:48;;;;;;;12.00;4.90;;;;;;;;;;5033245;28;20057;-83
2023/08/21 09:46:17;;;;;;;9.70;4.85;;;;;;;;;;5033153;28;20034;-83
2023/08/21 09:48:46;;;;;;;11.10;4.70;;;;;;;;;;5034588;28;20715;-82
2023/08/21 09:51:11;;;;;;;8.38;4.95;;;;;;;;;;5032716;28;20112;-83
2023/08/21 09:53:38;;;;;;;7.70;4.57;;;;;;;;;;5039322;28;20553;-83
2023/08/21 09:56:05;;;;;;;11.05;4.70;;;;;;;;;;5049016;28;20032;-82
2023/08/21 09:58:31;;;;;;;5.65;4.13;;;;;;;;;;5026146;28;20068;-82
2023/08/21 10:00:57;;;;;;;7.80;4.50;;;;;;;;;;5049177;28;20029;-82
2023/08/21 10:03:23;;;;;;;7.22;4.47;;;;;;;;;;5045842;28;20056;-81
2023/08/21 10:05:49;;;;;;;9.85;4.75;;;;;;;;;;5029188;28;20022;-82
2023/08/21 10:08:18;;;;;;;7.05;4.30;;;;;;;;;;5020336;28;20052;-82
2023/08/21 10:10:43;;;;;;;9.70;4.55;;;;;;;;;;5045026;28;20029;-83
2023/08/21 10:13:10;;;;;;;6.03;3.80;;;;;;;;;;5045922;28;20372;-84
2023/08/21 10:15:37;;;;;;;10.80;4.38;;;;;;;;;;5048013;28;20112;-84
2023/08/21 10:18:24;;;;;;;7.85;4.45;;;;;;;;;;5051686;28;20478;-84
2023/08/21 10:20:50;;;;;;;7.28;4.50;;;;;;;;;;5053725;28;20037;-84
2023/08/21 10:23:29;;;;;;;5.32;4.22;;;;;;;;;;5051170;28;20041;-83
2023/08/21 10:25:56;;;;;;;7.63;4.13;;;;;;;;;;5032295;28;20114;-84
2023/08/21 10:28:22;;;;;;;8.80;4.45;;;;;;;;;;5045349;28;20144;-84
2023/08/21 10:30:47;;;;;;;5.80;3.70;;;;;;;;;;5050391;28;20407;-83
2023/08/21 10:33:12;;;;;;;6.93;4.13;;;;;;;;;;5040524;28;20078;-83
2023/08/21 10:35:38;;;;;;;10.55;4.28;;;;;;;;;;5050044;28;20443;-82
2023/08/21 10:38:10;;;;;;;8.95;4.22;;;;;;;;;;5052965;28;20523;-81
2023/08/21 10:43:57;;;;;;;8.52;4.22;;;;;;;;;;5038414;23;20567;-82
2023/08/21 10:46:22;;;;;;;5.10;4.18;;;;;;;;;;5064259;28;20041;-82
2023/08/21 10:48:48;;;;;;;11.18;4.15;;;;;;;;;;5062701;28;20057;-82
2023/08/21 10:51:13;;;;;;;7.55;3.80;;;;;;;;;;5057139;28;20021;-82
2023/08/21 10:53:41;;;;;;;8.45;4.18;;;;;;;;;;5045405;28;20025;-83
2023/08/21 10:56:06;;;;;;;10.45;3.65;;;;;;;;;;5036062;28;20496;-80
2023/08/21 10:59:22;;;;;;;5.72;3.45;;;;;;;;;;5054130;28;20059;-80
2023/08/21 11:01:49;;;;;;;6.35;3.42;;;;;;;;;;5023609;28;20053;-80
2023/08/21 11:04:14;;;;;;;5.22;3.35;;;;;;;;;;5054285;28;20029;-80
2023/08/21 11:06:39;;;;;;;3.50;3.20;;;;;;;;;;5054297;28;20486;-81
2023/08/21 11:09:05;;;;;;;5.32;3.20;;;;;;;;;;5051798;28;20044;-80
2023/08/21 11:11:31;;;;;;;4.15;3.33;;;;;;;;;;5052258;28;20359;-80
2023/08/21 11:13:56;;;;;;;7.03;3.20;;;;;;;;;;5051565;28;20077;-79
2023/08/21 11:16:21;;;;;;;10.32;3.90;;;;;;;;;;5052592;28;20243;-80
2023/08/21 11:18:46;;;;;;;4.72;3.33;;;;;;;;;;5032379;28;20052;-80
2023/08/21 11:21:12;;;;;;;10.15;3.22;;;;;;;;;;5050933;28;20044;-82
2023/08/21 11:23:39;;;;;;;4.03;3.15;;;;;;;;;;5051442;28;20035;-79
2023/08/21 11:26:07;;;;;;;4.85;3.17;;;;;;;;;;5052823;28;20039;-78
2023/08/21 11:28:33;;;;;;;7.82;3.33;;;;;;;;;;5050176;28;20041;-80
2023/08/21 11:30:59;;;;;;;6.10;3.30;;;;;;;;;;5050894;28;20044;-80
2023/08/21 11:33:26;;;;;;;4.22;3.10;;;;;;;;;;5049492;28;20037;-80
2023/08/21 11:35:53;;;;;;;10.38;3.70;;;;;;;;;;5049520;28;20035;-79
2023/08/21 11:38:21;;;;;;;6.00;3.60;;;;;;;;;;5052146;28;20076;-80
2023/08/21 11:40:57;;;;;;;7.40;3.92;;;;;;;;;;5053343;28;20044;-79
2023/08/21 11:43:34;;;;;;;10.50;3.40;;;;;;;;;;5050967;28;21017;-80
2023/08/21 11:46:02;;;;;;;6.15;3.35;;;;;;;;;;5035838;28;20812;-80
2023/08/21 11:48:27;;;;;;;3.00;2.80;;;;;;;;;;5052864;28;20120;-78
2023/08/21 11:50:53;;;;;;;5.53;3.45;;;;;;;;;;5036590;28;20064;-79
2023/08/21 11:53:39;;;;;;;8.30;3.85;;;;;;;;;;5053509;28;20033;-81
2023/08/21 11:56:15;;;;;;;4.97;2.95;;;;;;;;;;5047952;28;20043;-78
2023/08/21 11:58:42;;;;;;;5.80;3.40;;;;;;;;;;5052591;28;20037;-80
2023/08/21 12:01:08;;;;;;;5.50;3.15;;;;;;;;;;5048041;28;20402;-81
2023/08/21 12:03:38;;;;;;;5.88;3.15;;;;;;;;;;5053936;28;20029;-82
2023/08/21 12:06:07;;;;;;;5.53;3.42;;;;;;;;;;5052614;28;20029;-79
2023/08/21 12:08:33;;;;;;;6.70;2.92;;;;;;;;;;5051682;28;20029;-80
2023/08/21 12:10:58;;;;;;;4.93;3.38;;;;;;;;;;5034071;28;20025;-78
2023/08/21 12:13:23;;;;;;;4.20;3.30;;;;;;;;;;5052207;28;20045;-82
2023/08/21 12:15:49;;;;;;;4.72;3.10;;;;;;;;;;5047344;28;20042;-81
2023/08/21 12:18:14;;;;;;;6.07;3.42;;;;;;;;;;5051637;28;20048;-79
2023/08/21 12:20:40;;;;;;;5.20;3.10;;;;;;;;;;5053411;28;20025;-80
2023/08/21 12:23:05;;;;;;;4.38;3.08;;;;;;;;;;5034773;28;20055;-80
2023/08/21 12:25:31;;;;;;;4.38;3.08;;;;;;;;;;5057707;28;20029;-80
2023/08/21 12:27:57;;;;;;;8.45;3.17;;;;;;;;;;5054854;28;20040;-80
2023/08/21 12:30:22;;;;;;;9.05;3.10;;;;;;;;;;5052074;28;20045;-80
2023/08/21 12:32:48;;;;;;;5.80;3.38;;;;;;;;;;5047681;28;20042;-82
2023/08/21 12:35:13;;;;;;;7.00;3.58;;;;;;;;;;5056125;28;20029;-80
2023/08/21 12:37:38;;;;;;;8.32;3.58;;;;;;;;;;5056987;28;20068;-81
2023/08/21 12:40:06;;;;;;;9.15;3.58;;;;;;;;;;5053149;28;20041;-80
2023/08/21 12:42:35;;;;;;;5.78;3.60;;;;;;;;;;5045966;28;20092;-79
2023/08/21 12:45:00;;;;;;;4.93;3.42;;;;;;;;;;5036702;28;20017;-82
2023/08/21 12:47:25;;;;;;;7.03;3.47;;;;;;;;;;5054023;28;20048;-79
2023/08/21 12:49:51;;;;;;;4.28;3.10;;;;;;;;;;5055871;28;20041;-80
2023/08/21 12:52:16;;;;;;;8.68;3.50;;;;;;;;;;5056674;28;20112;-82
2023/08/21 12:54:41;;;;;;;8.90;3.58;;;;;;;;;;5038243;28;20116;-82
2023/08/21 12:57:08;;;;;;;7.03;4.07;;;;;;;;;;5056878;28;20033;-80
2023/08/21 12:59:34;;;;;;;5.07;4.03;;;;;;;;;;5052930;28;20062;-83
2023/08/21 13:02:02;;;;;;;7.00;3.28;;;;;;;;;;5056308;28;20033;-81
2023/08/21 13:04:27;;;;;;;3.67;3.33;;;;;;;;;;5057614;28;20075;-79
2023/08/21 13:06:53;;;;;;;7.10;3.35;;;;;;;;;;5053796;28;20037;-82
2023/08/21 13:09:21;;;;;;;4.65;3.30;;;;;;;;;;5054320;28;20017;-82
2023/08/21 13:11:46;;;;;;;6.50;3.17;;;;;;;;;;5054085;28;20139;-80
2023/08/21 13:14:11;;;;;;;6.82;3.42;;;;;;;;;;5057513;28;20037;-80
2023/08/21 13:16:37;;;;;;;3.70;3.08;;;;;;;;;;5051289;28;20037;-80
2023/08/21 13:19:02;;;;;;;5.22;3.33;;;;;;;;;;5056275;28;20399;-82
2023/08/21 13:21:27;;;;;;;5.45;3.25;;;;;;;;;;5056505;28;20041;-82
2023/08/21 13:23:53;;;;;;;4.63;3.10;;;;;;;;;;5056599;28;20364;-80
2023/08/21 13:26:18;;;;;;;4.25;3.22;;;;;;;;;;5056097;28;20494;-82
2023/08/21 13:28:43;;;;;;;8.20;3.50;;;;;;;;;;5053605;28;20044;-81
2023/08/21 13:31:10;;;;;;;5.50;3.33;;;;;;;;;;5056246;28;20293;-83
2023/08/21 13:33:49;;;;;;;9.07;3.47;;;;;;;;;;5053136;28;20032;-82
2023/08/21 13:36:15;;;;;;;8.38;3.30;;;;;;;;;;5055806;28;20429;-81
2023/08/21 13:38:40;;;;;;;4.43;3.70;;;;;;;;;;5036389;28;20025;-82
2023/08/21 13:41:07;;;;;;;7.80;3.63;;;;;;;;;;5054163;28;20040;-82
2023/08/21 13:43:32;;;;;;;11.90;3.85;;;;;;;;;;5054854;28;20132;-82
2023/08/21 13:46:00;;;;;;;7.05;3.55;;;;;;;;;;5055133;28;20061;-82
2023/08/21 13:48:25;;;;;;;7.25;4.50;;;;;;;;;;5055386;28;20040;-81
2023/08/21 13:50:51;;;;;;;7.43;3.93;;;;;;;;;;5035946;28;20017;-81
2023/08/21 13:53:16;;;;;;;6.70;3.83;;;;;;;;;;5054682;28;20378;-80
2023/08/21 13:55:44;;;;;;;7.15;3.90;;;;;;;;;;5036118;28;20566;-80
2023/08/21 13:58:10;;;;;;;6.70;3.60;;;;;;;;;;5054904;28;20036;-82
2023/08/21 14:00:35;;;;;;;6.78;3.90;;;;;;;;;;5055902;28;20056;-81
2023/08/21 14:03:00;;;;;;;8.70;3.55;;;;;;;;;;5055623;28;20071;-81
2023/08/21 14:05:27;;;;;;;4.10;3.67;;;;;;;;;;5053727;28;20025;-81
2023/08/21 14:07:52;;;;;;;6.10;3.70;;;;;;;;;;5054658;28;20033;-83
2023/08/21 14:10:18;;;;;;;7.32;3.70;;;;;;;;;;5053937;28;20087;-81
2023/08/21 14:12:43;;;;;;;8.55;4.15;;;;;;;;;;5053513;28;20043;-79
2023/08/21 14:15:10;;;;;;;9.52;4.38;;;;;;;;;;5055102;28;20038;-81
2023/08/21 14:17:35;;;;;;;6.30;4.45;;;;;;;;;;5052345;28;20149;-80
2023/08/21 14:20:01;;;;;;;5.93;3.83;;;;;;;;;;5052924;28;20128;-83
2023/08/21 14:22:27;;;;;;;5.13;4.15;;;;;;;;;;5048799;28;20029;-82
2023/08/21 14:24:52;;;;;;;7.00;3.65;;;;;;;;;;5054821;28;20037;-85
2023/08/21 14:27:17;;;;;;;10.13;4.38;;;;;;;;;;5054008;28;20028;-85
2023/08/21 14:29:46;;;;;;;6.10;3.40;;;;;;;;;;5039284;28;20021;-85
2023/08/21 14:32:13;;;;;;;5.68;3.83;;;;;;;;;;5037334;28;20029;-85
2023/08/21 14:34:38;;;;;;;6.78;3.80;;;;;;;;;;5052815;28;20037;-86
2023/08/21 14:37:04;;;;;;;5.53;4.13;;;;;;;;;;5058126;28;20095;-84
2023/08/21 14:39:38;;;;;;;24.63;4.03;;;;;;;;;;5040393;28;20044;-87